Time;durP1;ratioP1;P1;durP2;ratioP2;P2;SDS_P1;SDS_P2;PMS_P1;PMS_P2;Temp;Humidity;BMP_temperature;BMP_pressure;BME280_temperature;BME280_humidity;BME280_pressure;Samples;Min_cycle;Max_cycle;Signal;HPM_P1;HPM_P2
2021/12/18 00:00:10;;;;;;;24.55;11.02;;;;;;;;;;5010516;28;20644;-62
2021/12/18 00:02:37;;;;;;;26.50;11.48;;;;;;;;;;5011433;28;20144;-63
2021/12/18 00:05:05;;;;;;;25.33;12.25;;;;;;;;;;5012135;28;20057;-62
2021/12/18 00:07:34;;;;;;;24.02;12.45;;;;;;;;;;5011915;28;20050;-62
2021/12/18 00:10:02;;;;;;;26.45;11.57;;;;;;;;;;5011878;28;20057;-63
2021/12/18 00:12:29;;;;;;;25.13;12.23;;;;;;;;;;5012084;28;20497;-63
2021/12/18 00:14:56;;;;;;;28.23;12.25;;;;;;;;;;5012421;28;20050;-62
2021/12/18 00:17:24;;;;;;;25.80;12.18;;;;;;;;;;5011887;28;20056;-62
2021/12/18 00:19:51;;;;;;;26.38;11.52;;;;;;;;;;5011618;28;20137;-63
2021/12/18 00:22:18;;;;;;;27.58;13.07;;;;;;;;;;5023853;22;20484;-65
2021/12/18 00:24:45;;;;;;;26.10;12.48;;;;;;;;;;5011728;28;20050;-67
2021/12/18 00:27:12;;;;;;;24.65;11.18;;;;;;;;;;5011627;28;20068;-67
2021/12/18 00:29:39;;;;;;;24.23;10.90;;;;;;;;;;5011449;28;20077;-66
2021/12/18 00:32:06;;;;;;;25.38;11.65;;;;;;;;;;5011822;28;20479;-67
2021/12/18 00:34:35;;;;;;;25.67;11.93;;;;;;;;;;5011629;28;20058;-68
2021/12/18 00:37:02;;;;;;;26.13;11.88;;;;;;;;;;5011289;28;20115;-68
2021/12/18 00:39:31;;;;;;;30.65;13.18;;;;;;;;;;5011186;28;20053;-67
2021/12/18 00:42:09;;;;;;;29.17;11.57;;;;;;;;;;5011584;28;20046;-67
2021/12/18 00:44:36;;;;;;;25.35;11.88;;;;;;;;;;5011540;28;20050;-66
2021/12/18 00:47:03;;;;;;;28.75;12.20;;;;;;;;;;5011976;28;20053;-67
2021/12/18 00:49:30;;;;;;;32.33;12.32;;;;;;;;;;5011182;28;20426;-67
2021/12/18 00:51:58;;;;;;;33.70;13.23;;;;;;;;;;5009594;28;20088;-67
2021/12/18 00:54:27;;;;;;;35.28;14.15;;;;;;;;;;5010163;28;20045;-67
2021/12/18 00:56:54;;;;;;;33.17;14.25;;;;;;;;;;5011086;28;20087;-67
2021/12/18 00:59:21;;;;;;;37.05;14.30;;;;;;;;;;5020131;28;20052;-69
2021/12/18 01:01:48;;;;;;;32.45;14.27;;;;;;;;;;5010225;28;20089;-67
2021/12/18 01:04:17;;;;;;;33.42;13.73;;;;;;;;;;5011154;28;20505;-67
2021/12/18 01:06:45;;;;;;;32.35;13.18;;;;;;;;;;5009031;28;20050;-67
2021/12/18 01:09:13;;;;;;;32.17;13.40;;;;;;;;;;5014216;28;20057;-68
2021/12/18 01:11:44;;;;;;;30.95;13.90;;;;;;;;;;5014567;28;20411;-67
2021/12/18 01:14:33;;;;;;;30.27;13.13;;;;;;;;;;5013728;28;20076;-67
2021/12/18 01:25:11;;;;;;;33.67;13.30;;;;;;;;;;5015202;28;20048;-69
2021/12/18 01:27:39;;;;;;;33.00;13.48;;;;;;;;;;5014372;28;20054;-67
2021/12/18 01:30:09;;;;;;;33.92;14.30;;;;;;;;;;5014534;28;20054;-68
2021/12/18 01:32:36;;;;;;;33.80;14.43;;;;;;;;;;5014445;28;20054;-68
2021/12/18 01:35:03;;;;;;;36.58;14.18;;;;;;;;;;5014428;28;20228;-66
2021/12/18 01:37:31;;;;;;;38.45;16.30;;;;;;;;;;5014117;28;20045;-67
2021/12/18 01:39:58;;;;;;;39.25;14.90;;;;;;;;;;5014248;28;20041;-67
2021/12/18 01:43:06;;;;;;;42.38;16.60;;;;;;;;;;5014281;28;20056;-67
2021/12/18 01:45:29;;;;;;;40.55;15.35;;;;;;;;;;5014168;28;20053;-67
2021/12/18 01:53:25;;;;;;;37.80;15.50;;;;;;;;;;5014026;28;20517;-67
2021/12/18 01:55:52;;;;;;;39.83;15.57;;;;;;;;;;5014249;28;20056;-67
2021/12/18 01:58:23;;;;;;;39.55;15.70;;;;;;;;;;5013767;28;20057;-67
2021/12/18 02:00:53;;;;;;;37.70;15.75;;;;;;;;;;5014088;28;20444;-66
2021/12/18 02:03:20;;;;;;;35.30;14.65;;;;;;;;;;5014281;28;20521;-67
2021/12/18 02:05:48;;;;;;;37.55;13.80;;;;;;;;;;5013946;28;20060;-67
2021/12/18 02:08:19;;;;;;;35.25;14.70;;;;;;;;;;5013626;28;20054;-67
2021/12/18 02:10:53;;;;;;;38.93;15.53;;;;;;;;;;5013844;28;20487;-67
2021/12/18 02:13:35;;;;;;;37.03;13.85;;;;;;;;;;5013891;28;20050;-68
2021/12/18 02:21:33;;;;;;;32.97;14.32;;;;;;;;;;5013457;28;20185;-67
2021/12/18 02:24:01;;;;;;;34.08;14.00;;;;;;;;;;5013751;28;20052;-67
2021/12/18 02:26:28;;;;;;;35.75;14.63;;;;;;;;;;5013454;28;20046;-67
2021/12/18 02:28:58;;;;;;;33.50;12.32;;;;;;;;;;5013433;28;20053;-67
2021/12/18 02:31:26;;;;;;;35.35;13.48;;;;;;;;;;5013753;28;20471;-67
2021/12/18 02:33:53;;;;;;;38.55;14.38;;;;;;;;;;5013344;28;20050;-67
2021/12/18 02:36:23;;;;;;;35.45;13.57;;;;;;;;;;5013538;28;20654;-67
2021/12/18 02:39:16;;;;;;;34.63;13.63;;;;;;;;;;5012990;28;20057;-68
2021/12/18 02:41:45;;;;;;;35.67;14.32;;;;;;;;;;5013433;28;20514;-67
2021/12/18 02:44:14;;;;;;;33.55;14.00;;;;;;;;;;5013205;28;20085;-67
2021/12/18 02:46:41;;;;;;;37.72;15.52;;;;;;;;;;5013041;28;20049;-67
2021/12/18 02:49:12;;;;;;;36.90;15.30;;;;;;;;;;5012821;28;20140;-67
2021/12/18 02:51:39;;;;;;;42.25;14.77;;;;;;;;;;5012880;28;20092;-67
2021/12/18 02:54:08;;;;;;;44.22;16.17;;;;;;;;;;5012948;28;20046;-66
2021/12/18 02:56:35;;;;;;;40.75;16.13;;;;;;;;;;5012947;28;20137;-68
2021/12/18 02:59:07;;;;;;;39.88;16.25;;;;;;;;;;5012575;28;20396;-67
2021/12/18 03:01:35;;;;;;;36.88;13.30;;;;;;;;;;5012737;28;20128;-68
2021/12/18 03:04:12;;;;;;;39.63;14.07;;;;;;;;;;5013075;28;20045;-67
2021/12/18 03:06:43;;;;;;;35.15;13.70;;;;;;;;;;5012926;28;20413;-67
2021/12/18 03:09:36;;;;;;;39.85;14.93;;;;;;;;;;5012763;28;20466;-67
2021/12/18 03:23:26;;;;;;;32.78;12.90;;;;;;;;;;5012362;28;20515;-67
2021/12/18 03:25:57;;;;;;;33.65;13.95;;;;;;;;;;5012618;28;20053;-67
2021/12/18 03:28:24;;;;;;;32.65;12.40;;;;;;;;;;5011752;28;20053;-66
2021/12/18 03:30:51;;;;;;;36.00;12.93;;;;;;;;;;5012298;28;20052;-67
2021/12/18 03:33:18;;;;;;;33.83;11.90;;;;;;;;;;5012650;28;20052;-67
2021/12/18 03:35:45;;;;;;;32.85;13.75;;;;;;;;;;5012332;28;20053;-67
2021/12/18 03:38:12;;;;;;;33.45;12.63;;;;;;;;;;5012185;28;20499;-68
2021/12/18 03:40:40;;;;;;;35.38;14.27;;;;;;;;;;5012157;28;20052;-68
2021/12/18 03:43:08;;;;;;;33.53;12.65;;;;;;;;;;5012017;28;20058;-69
2021/12/18 03:45:35;;;;;;;35.13;12.23;;;;;;;;;;5012391;28;20415;-67
2021/12/18 03:48:02;;;;;;;37.83;14.35;;;;;;;;;;5012248;28;20522;-67
2021/12/18 03:50:29;;;;;;;34.63;12.35;;;;;;;;;;5012107;28;20130;-68
2021/12/18 03:52:56;;;;;;;35.53;13.77;;;;;;;;;;5012606;28;20065;-66
2021/12/18 03:55:23;;;;;;;36.00;13.90;;;;;;;;;;5011960;28;20046;-67
2021/12/18 03:57:50;;;;;;;36.78;14.90;;;;;;;;;;5011871;28;20052;-67
2021/12/18 04:00:19;;;;;;;35.90;13.02;;;;;;;;;;5012298;28;20415;-67
2021/12/18 04:02:46;;;;;;;31.88;12.18;;;;;;;;;;5011952;28;20526;-67
2021/12/18 04:05:13;;;;;;;31.20;12.20;;;;;;;;;;5012265;28;20510;-67
2021/12/18 04:07:43;;;;;;;33.97;12.02;;;;;;;;;;5011833;28;20058;-67
2021/12/18 04:10:11;;;;;;;29.90;11.52;;;;;;;;;;5012017;28;20369;-68
2021/12/18 04:12:38;;;;;;;28.08;11.32;;;;;;;;;;5012078;28;20491;-67
2021/12/18 04:15:06;;;;;;;31.08;12.68;;;;;;;;;;5012121;28;20057;-67
2021/12/18 04:17:34;;;;;;;34.22;13.07;;;;;;;;;;5011762;28;20050;-67
2021/12/18 04:20:01;;;;;;;32.80;12.10;;;;;;;;;;5011932;28;20046;-67
2021/12/18 04:22:28;;;;;;;32.05;12.82;;;;;;;;;;5011666;28;20054;-69
2021/12/18 04:24:55;;;;;;;34.72;12.55;;;;;;;;;;5011763;28;20077;-67
2021/12/18 04:27:22;;;;;;;31.27;12.05;;;;;;;;;;5012094;28;20486;-67
2021/12/18 04:29:49;;;;;;;27.67;12.90;;;;;;;;;;5011591;28;20056;-67
2021/12/18 04:32:16;;;;;;;33.35;12.32;;;;;;;;;;5011640;28;20061;-67
2021/12/18 04:34:44;;;;;;;32.00;11.75;;;;;;;;;;5011756;28;20088;-67
2021/12/18 04:37:11;;;;;;;28.73;11.77;;;;;;;;;;5011607;28;20056;-67
2021/12/18 04:39:38;;;;;;;31.15;11.63;;;;;;;;;;5012006;28;20090;-67
2021/12/18 04:42:05;;;;;;;30.75;11.32;;;;;;;;;;5015667;28;20058;-68
2021/12/18 04:44:32;;;;;;;32.47;11.70;;;;;;;;;;5015457;28;20509;-67
2021/12/18 04:46:59;;;;;;;29.13;10.88;;;;;;;;;;5015337;28;20056;-67
2021/12/18 04:49:26;;;;;;;29.92;11.23;;;;;;;;;;5015010;28;20046;-67
2021/12/18 04:51:55;;;;;;;25.98;10.23;;;;;;;;;;5015197;28;20053;-67
2021/12/18 04:54:22;;;;;;;27.25;11.07;;;;;;;;;;5015277;28;20419;-67
2021/12/18 04:56:49;;;;;;;28.38;11.57;;;;;;;;;;5015157;28;20081;-67
2021/12/18 04:59:16;;;;;;;35.88;11.65;;;;;;;;;;5014853;28;20088;-67
2021/12/18 05:01:43;;;;;;;30.70;11.30;;;;;;;;;;5015118;28;20054;-68
2021/12/18 05:04:12;;;;;;;32.40;10.93;;;;;;;;;;5014885;28;20414;-67
2021/12/18 05:06:42;;;;;;;27.05;11.18;;;;;;;;;;5014898;28;20053;-66
2021/12/18 05:09:11;;;;;;;27.83;10.93;;;;;;;;;;5014803;28;20415;-68
2021/12/18 05:11:39;;;;;;;22.77;9.90;;;;;;;;;;5014761;28;20046;-67
2021/12/18 05:14:06;;;;;;;26.58;10.20;;;;;;;;;;5014892;28;20065;-67
2021/12/18 05:16:33;;;;;;;27.13;10.23;;;;;;;;;;5014811;28;20054;-67
2021/12/18 05:19:00;;;;;;;20.90;9.05;;;;;;;;;;5014566;28;20073;-67
2021/12/18 05:21:27;;;;;;;26.65;9.23;;;;;;;;;;5014791;28;20491;-67
2021/12/18 05:23:54;;;;;;;26.80;10.30;;;;;;;;;;5014694;28;20050;-67
2021/12/18 05:26:22;;;;;;;26.27;9.73;;;;;;;;;;5014619;28;20056;-67
2021/12/18 05:28:49;;;;;;;23.48;9.68;;;;;;;;;;5014411;28;20050;-67
2021/12/18 05:31:17;;;;;;;24.80;11.07;;;;;;;;;;5014341;28;20054;-67
2021/12/18 05:33:45;;;;;;;24.13;11.20;;;;;;;;;;5014639;28;20058;-67
2021/12/18 05:36:31;;;;;;;23.55;9.65;;;;;;;;;;5014689;28;20515;-66
2021/12/18 05:39:00;;;;;;;27.98;9.57;;;;;;;;;;5014472;28;20058;-67
2021/12/18 05:41:29;;;;;;;22.95;9.55;;;;;;;;;;5014297;28;20060;-67
2021/12/18 05:43:56;;;;;;;25.30;9.52;;;;;;;;;;5014688;28;20057;-67
2021/12/18 05:46:23;;;;;;;21.00;9.98;;;;;;;;;;5014311;28;20054;-69
2021/12/18 05:48:50;;;;;;;27.83;10.32;;;;;;;;;;5014148;28;20487;-67
2021/12/18 05:51:17;;;;;;;23.92;10.43;;;;;;;;;;5013596;28;20050;-67
2021/12/18 05:53:44;;;;;;;24.83;9.98;;;;;;;;;;5014086;28;20090;-68
2021/12/18 05:56:11;;;;;;;25.92;11.73;;;;;;;;;;5013943;28;20340;-67
2021/12/18 05:58:43;;;;;;;22.45;9.93;;;;;;;;;;5013919;28;20511;-67
2021/12/18 06:01:11;;;;;;;23.80;9.98;;;;;;;;;;5014233;28;20529;-67
2021/12/18 06:03:38;;;;;;;27.50;10.48;;;;;;;;;;5013906;28;20076;-67
2021/12/18 06:06:05;;;;;;;24.95;10.00;;;;;;;;;;5013942;28;20052;-67
2021/12/18 06:08:34;;;;;;;24.30;9.90;;;;;;;;;;5013631;28;20499;-67
2021/12/18 06:11:07;;;;;;;25.42;10.25;;;;;;;;;;5013934;28;20054;-68
2021/12/18 06:13:34;;;;;;;23.65;9.80;;;;;;;;;;5013956;28;20057;-69
2021/12/18 06:16:05;;;;;;;25.50;10.27;;;;;;;;;;5013877;28;20491;-67
2021/12/18 06:18:32;;;;;;;;;;;;;;;;;;5014247;28;20089;-69
2021/12/18 06:20:59;;;;;;;21.02;9.38;;;;;;;;;;5013496;28;20339;-67
2021/12/18 06:23:26;;;;;;;22.27;9.40;;;;;;;;;;5013477;28;20064;-67
2021/12/18 06:25:53;;;;;;;24.65;9.57;;;;;;;;;;5036758;22;20512;-65
2021/12/18 06:28:20;;;;;;;23.75;9.07;;;;;;;;;;5033274;28;20056;-65
2021/12/18 06:30:48;;;;;;;24.42;9.35;;;;;;;;;;5033139;28;20046;-66
2021/12/18 06:33:17;;;;;;;22.65;8.95;;;;;;;;;;5033164;28;20132;-66
2021/12/18 06:35:44;;;;;;;23.95;9.75;;;;;;;;;;5033523;28;20056;-65
2021/12/18 06:38:11;;;;;;;22.48;9.40;;;;;;;;;;5033156;28;20045;-67
2021/12/18 06:40:38;;;;;;;23.15;9.50;;;;;;;;;;5033146;28;20427;-66
2021/12/18 06:43:05;;;;;;;27.00;10.57;;;;;;;;;;5032803;28;20096;-65
2021/12/18 06:45:32;;;;;;;24.63;10.30;;;;;;;;;;5032908;28;20056;-67
2021/12/18 06:47:59;;;;;;;26.15;12.20;;;;;;;;;;5032904;28;20056;-67
2021/12/18 06:50:28;;;;;;;25.15;10.88;;;;;;;;;;5032774;28;20046;-68
2021/12/18 06:52:55;;;;;;;23.55;9.88;;;;;;;;;;5032563;28;20049;-67
2021/12/18 06:55:23;;;;;;;21.55;10.18;;;;;;;;;;5032787;28;20156;-67
2021/12/18 06:57:50;;;;;;;23.95;10.23;;;;;;;;;;5032518;28;20096;-66
2021/12/18 07:00:20;;;;;;;22.33;8.93;;;;;;;;;;5032601;28;20045;-66
2021/12/18 07:02:47;;;;;;;22.20;9.85;;;;;;;;;;5031735;28;20566;-67
2021/12/18 07:05:15;;;;;;;25.73;9.88;;;;;;;;;;5032547;28;20042;-66
2021/12/18 07:07:43;;;;;;;20.83;9.60;;;;;;;;;;5032131;28;20136;-66
2021/12/18 07:10:12;;;;;;;20.77;8.77;;;;;;;;;;5032488;28;20049;-67
2021/12/18 07:12:39;;;;;;;22.65;8.88;;;;;;;;;;5032195;28;20092;-66
2021/12/18 07:15:09;;;;;;;25.67;10.18;;;;;;;;;;5032297;28;20104;-66
2021/12/18 07:17:36;;;;;;;22.60;9.02;;;;;;;;;;5032015;28;20060;-66
2021/12/18 07:20:04;;;;;;;24.23;9.30;;;;;;;;;;5032343;28;20045;-66
2021/12/18 07:22:31;;;;;;;22.65;9.35;;;;;;;;;;5032151;28;20506;-66
2021/12/18 07:25:00;;;;;;;22.67;9.00;;;;;;;;;;5032193;28;20436;-66
2021/12/18 07:27:26;;;;;;;21.70;9.30;;;;;;;;;;5032077;28;20053;-67
2021/12/18 07:29:53;;;;;;;19.25;8.82;;;;;;;;;;5031847;28;20045;-66
2021/12/18 07:32:20;;;;;;;17.67;8.18;;;;;;;;;;5031902;28;20056;-66
2021/12/18 07:34:47;;;;;;;19.08;7.50;;;;;;;;;;5032098;28;20041;-66
2021/12/18 07:37:14;;;;;;;21.83;10.18;;;;;;;;;;5031864;28;20063;-66
2021/12/18 07:39:41;;;;;;;18.88;8.23;;;;;;;;;;5031760;28;20060;-67
2021/12/18 07:42:10;;;;;;;18.98;8.23;;;;;;;;;;5031904;28;20422;-66
2021/12/18 07:44:39;;;;;;;22.48;9.63;;;;;;;;;;5031836;28;20458;-66
2021/12/18 07:47:07;;;;;;;20.00;8.02;;;;;;;;;;5032103;28;20422;-66
2021/12/18 07:49:33;;;;;;;15.98;7.07;;;;;;;;;;5031686;28;20041;-66
2021/12/18 07:52:03;;;;;;;22.45;9.00;;;;;;;;;;5031769;28;20519;-67
2021/12/18 07:54:31;;;;;;;20.05;8.05;;;;;;;;;;5032032;28;20050;-66
2021/12/18 07:56:58;;;;;;;21.02;8.15;;;;;;;;;;5031863;28;20051;-66
2021/12/18 07:59:26;;;;;;;18.55;8.65;;;;;;;;;;5031601;28;20041;-66
2021/12/18 08:01:53;;;;;;;21.30;9.45;;;;;;;;;;5031824;28;20056;-66
2021/12/18 08:04:20;;;;;;;21.90;9.90;;;;;;;;;;5031813;28;20053;-68
2021/12/18 08:06:47;;;;;;;26.50;13.50;;;;;;;;;;5031492;28;20447;-66
2021/12/18 08:09:14;;;;;;;17.98;8.13;;;;;;;;;;5031213;28;20120;-66
2021/12/18 08:11:41;;;;;;;14.35;7.57;;;;;;;;;;5031317;28;20053;-66
2021/12/18 08:14:08;;;;;;;14.00;6.80;;;;;;;;;;5033126;28;20045;-67
2021/12/18 08:16:36;;;;;;;18.08;7.50;;;;;;;;;;5035731;28;20080;-67
2021/12/18 08:19:06;;;;;;;15.35;7.35;;;;;;;;;;5035502;28;20060;-66
2021/12/18 08:21:34;;;;;;;16.98;7.93;;;;;;;;;;5035785;28;20432;-66
2021/12/18 08:24:01;;;;;;;16.05;7.13;;;;;;;;;;5036077;28;20052;-66
2021/12/18 08:26:28;;;;;;;21.02;9.15;;;;;;;;;;5035354;28;20052;-66
2021/12/18 08:28:55;;;;;;;18.95;8.10;;;;;;;;;;5034944;28;20053;-67
2021/12/18 08:31:22;;;;;;;15.88;8.48;;;;;;;;;;5035037;28;20050;-66
2021/12/18 08:33:50;;;;;;;20.80;8.38;;;;;;;;;;5034972;28;20300;-67
2021/12/18 08:36:17;;;;;;;18.92;8.65;;;;;;;;;;5035355;28;20041;-66
2021/12/18 08:38:44;;;;;;;22.00;8.82;;;;;;;;;;5034820;28;20498;-66
2021/12/18 08:41:11;;;;;;;20.70;8.77;;;;;;;;;;5035000;28;20045;-66
2021/12/18 08:43:38;;;;;;;19.55;8.93;;;;;;;;;;5034850;28;20045;-66
2021/12/18 08:46:06;;;;;;;18.67;8.27;;;;;;;;;;5034914;28;20052;-67
2021/12/18 08:48:34;;;;;;;18.90;7.95;;;;;;;;;;5034574;28;20053;-66
2021/12/18 08:51:02;;;;;;;19.40;7.45;;;;;;;;;;5034850;28;20056;-66
2021/12/18 08:53:29;;;;;;;16.10;7.80;;;;;;;;;;5034915;28;20063;-66
2021/12/18 08:55:56;;;;;;;15.38;6.80;;;;;;;;;;5034844;28;20041;-66
2021/12/18 08:58:23;;;;;;;20.17;7.82;;;;;;;;;;5034401;28;20049;-66
2021/12/18 09:00:50;;;;;;;16.45;8.25;;;;;;;;;;5034699;28;20056;-67
2021/12/18 09:03:17;;;;;;;18.02;7.65;;;;;;;;;;5034580;28;20079;-66
2021/12/18 09:05:44;;;;;;;21.80;8.20;;;;;;;;;;5034603;28;20395;-67
2021/12/18 09:08:13;;;;;;;16.08;7.30;;;;;;;;;;5034424;28;20509;-66
2021/12/18 09:10:40;;;;;;;18.27;7.57;;;;;;;;;;5034730;28;20054;-67
2021/12/18 09:13:08;;;;;;;18.13;8.63;;;;;;;;;;5034391;28;20085;-67
2021/12/18 09:15:35;;;;;;;16.27;7.38;;;;;;;;;;5034481;28;20053;-67
2021/12/18 09:18:02;;;;;;;17.13;7.88;;;;;;;;;;5034183;28;20059;-66
2021/12/18 09:20:29;;;;;;;15.35;6.82;;;;;;;;;;5034358;28;20128;-66
2021/12/18 09:22:58;;;;;;;17.50;7.38;;;;;;;;;;5034382;28;20499;-66
2021/12/18 09:25:26;;;;;;;16.55;8.02;;;;;;;;;;5033518;28;20053;-67
2021/12/18 09:27:56;;;;;;;18.58;8.30;;;;;;;;;;5034049;28;20050;-66
2021/12/18 09:30:24;;;;;;;16.13;8.70;;;;;;;;;;5034261;28;20051;-66
2021/12/18 09:32:52;;;;;;;18.25;8.07;;;;;;;;;;5033755;28;20260;-65
2021/12/18 09:35:21;;;;;;;17.25;7.13;;;;;;;;;;5034087;28;20045;-66
2021/12/18 09:37:48;;;;;;;15.02;7.20;;;;;;;;;;5034073;28;20080;-66
2021/12/18 09:40:18;;;;;;;18.42;9.00;;;;;;;;;;5034277;28;20073;-66
2021/12/18 09:42:47;;;;;;;18.20;8.73;;;;;;;;;;5034106;28;20506;-66
2021/12/18 09:45:15;;;;;;;17.10;8.35;;;;;;;;;;5034260;28;20049;-66
2021/12/18 09:47:44;;;;;;;17.95;8.35;;;;;;;;;;5033486;28;20056;-65
2021/12/18 09:50:12;;;;;;;21.80;9.27;;;;;;;;;;5033845;28;20124;-67
2021/12/18 09:52:39;;;;;;;20.75;9.02;;;;;;;;;;5033608;28;20495;-66
2021/12/18 09:55:08;;;;;;;18.20;8.80;;;;;;;;;;5033660;28;20060;-67
2021/12/18 09:57:35;;;;;;;20.85;9.75;;;;;;;;;;5033291;28;20051;-66
2021/12/18 10:00:06;;;;;;;19.52;8.45;;;;;;;;;;5033468;28;20128;-67
2021/12/18 10:02:33;;;;;;;12.55;6.70;;;;;;;;;;5033558;28;20045;-67
2021/12/18 10:05:00;;;;;;;15.07;7.28;;;;;;;;;;5033760;28;20120;-68
2021/12/18 10:07:28;;;;;;;15.35;8.02;;;;;;;;;;5033104;28;20354;-67
2021/12/18 10:09:57;;;;;;;17.40;7.53;;;;;;;;;;5033389;28;20071;-66
2021/12/18 10:12:25;;;;;;;17.83;7.70;;;;;;;;;;5032918;28;20167;-67
2021/12/18 10:14:54;;;;;;;19.48;9.05;;;;;;;;;;5033202;28;20059;-67
2021/12/18 10:17:27;;;;;;;19.55;8.70;;;;;;;;;;5033313;28;20053;-67
2021/12/18 10:19:56;;;;;;;20.42;8.15;;;;;;;;;;5033188;28;20049;-69
2021/12/18 10:22:23;;;;;;;19.88;8.35;;;;;;;;;;5033054;28;20073;-67
2021/12/18 10:25:06;;;;;;;15.10;7.72;;;;;;;;;;5032820;28;20055;-68
2021/12/18 10:27:33;;;;;;;19.10;8.18;;;;;;;;;;5031668;28;20251;-67
2021/12/18 10:30:15;;;;;;;18.75;8.20;;;;;;;;;;5033527;28;20105;-68
2021/12/18 10:32:56;;;;;;;17.73;7.55;;;;;;;;;;5032894;28;20077;-67
2021/12/18 10:35:23;;;;;;;18.40;7.70;;;;;;;;;;5033177;28;20046;-68
2021/12/18 10:37:50;;;;;;;17.98;8.00;;;;;;;;;;5032370;28;20048;-68
2021/12/18 10:40:17;;;;;;;16.67;6.90;;;;;;;;;;5032811;28;20551;-68
2021/12/18 10:42:47;;;;;;;17.92;7.55;;;;;;;;;;5030292;28;20045;-67
2021/12/18 10:45:19;;;;;;;18.08;8.05;;;;;;;;;;5032320;28;20073;-67
2021/12/18 10:48:06;;;;;;;19.85;7.97;;;;;;;;;;5031912;28;20045;-67
2021/12/18 10:50:39;;;;;;;18.35;7.60;;;;;;;;;;5032226;28;20479;-67
2021/12/18 10:53:10;;;;;;;17.92;8.80;;;;;;;;;;5032220;28;20063;-66
2021/12/18 10:55:45;;;;;;;18.75;8.15;;;;;;;;;;5029878;28;20064;-66
2021/12/18 10:58:15;;;;;;;17.63;8.07;;;;;;;;;;5031848;28;20128;-66
2021/12/18 11:00:57;;;;;;;15.82;7.45;;;;;;;;;;5032264;28;20057;-66
2021/12/18 11:03:35;;;;;;;20.23;7.95;;;;;;;;;;5033608;28;20525;-66
2021/12/18 11:06:12;;;;;;;17.60;8.35;;;;;;;;;;5039214;28;20570;-67
2021/12/18 11:08:55;;;;;;;20.05;8.75;;;;;;;;;;5029645;28;20107;-66
2021/12/18 11:14:11;;;;;;;19.13;8.65;;;;;;;;;;5031066;28;20068;-66
2021/12/18 11:16:39;;;;;;;20.02;9.57;;;;;;;;;;5029827;28;20053;-66
2021/12/18 11:19:12;;;;;;;20.85;9.75;;;;;;;;;;5031427;28;20041;-67
2021/12/18 11:21:41;;;;;;;15.23;7.70;;;;;;;;;;5031418;28;20052;-65
2021/12/18 11:24:09;;;;;;;20.92;9.45;;;;;;;;;;5026718;28;20053;-65
2021/12/18 11:26:41;;;;;;;17.88;9.18;;;;;;;;;;5031657;28;20417;-65
2021/12/18 11:29:13;;;;;;;18.88;8.80;;;;;;;;;;5029562;28;20050;-66
2021/12/18 11:31:41;;;;;;;21.25;9.07;;;;;;;;;;5031977;28;20094;-68
2021/12/18 11:34:10;;;;;;;19.58;8.88;;;;;;;;;;5031949;28;20052;-69
2021/12/18 11:36:41;;;;;;;21.50;9.25;;;;;;;;;;5031621;28;20049;-66
2021/12/18 11:39:09;;;;;;;20.95;9.68;;;;;;;;;;5031374;28;20041;-68
2021/12/18 11:41:37;;;;;;;22.80;9.27;;;;;;;;;;5031961;28;20042;-68
2021/12/18 11:44:24;;;;;;;20.85;8.43;;;;;;;;;;5031282;28;20045;-65
2021/12/18 11:46:53;;;;;;;19.40;9.25;;;;;;;;;;5031402;28;20049;-65
2021/12/18 11:49:25;;;;;;;21.65;9.93;;;;;;;;;;5031362;28;20049;-66
2021/12/18 11:52:00;;;;;;;21.98;9.52;;;;;;;;;;5032882;28;20045;-65
2021/12/18 11:54:44;;;;;;;19.05;9.00;;;;;;;;;;5032873;28;20136;-66
2021/12/18 11:57:12;;;;;;;19.83;9.63;;;;;;;;;;5032000;28;20045;-66
2021/12/18 11:59:40;;;;;;;18.10;8.38;;;;;;;;;;5032250;28;20144;-65
2021/12/18 12:02:08;;;;;;;18.15;8.85;;;;;;;;;;5033845;28;20049;-65
2021/12/18 12:05:03;;;;;;;20.02;9.55;;;;;;;;;;5032501;28;20063;-65
2021/12/18 12:07:31;;;;;;;22.85;11.10;;;;;;;;;;5030206;28;20045;-66
2021/12/18 12:10:11;;;;;;;22.17;10.45;;;;;;;;;;5033071;28;20050;-66
2021/12/18 12:12:54;;;;;;;22.58;10.60;;;;;;;;;;5032114;28;20402;-66
2021/12/18 12:15:24;;;;;;;23.25;9.23;;;;;;;;;;5028834;28;20546;-65
2021/12/18 12:17:57;;;;;;;18.70;9.05;;;;;;;;;;5032284;28;20045;-65
2021/12/18 12:20:38;;;;;;;20.95;9.23;;;;;;;;;;5032669;28;20077;-65
2021/12/18 12:23:05;;;;;;;;;;;;;;;;;;5038305;28;20051;-66
2021/12/18 12:25:41;;;;;;;18.52;8.35;;;;;;;;;;5032035;28;20397;-65
2021/12/18 12:28:10;;;;;;;17.98;8.10;;;;;;;;;;5031901;28;20072;-66
2021/12/18 12:30:43;;;;;;;21.63;8.20;;;;;;;;;;5031198;28;20053;-65
2021/12/18 12:33:14;;;;;;;18.30;7.85;;;;;;;;;;5030989;28;20470;-66
2021/12/18 12:35:58;;;;;;;19.67;9.90;;;;;;;;;;5031371;28;20081;-66
2021/12/18 12:38:27;;;;;;;24.35;11.55;;;;;;;;;;5031289;28;20069;-65
2021/12/18 12:40:56;;;;;;;29.50;13.52;;;;;;;;;;5031310;28;20498;-65
2021/12/18 12:43:28;;;;;;;43.53;21.30;;;;;;;;;;5031153;28;20108;-65
2021/12/18 12:46:03;;;;;;;51.72;24.67;;;;;;;;;;5031277;28;20054;-65
2021/12/18 12:48:58;;;;;;;30.50;16.42;;;;;;;;;;5030828;28;20168;-66
2021/12/18 12:51:27;;;;;;;20.77;10.10;;;;;;;;;;5031288;28;20095;-66
2021/12/18 12:53:55;;;;;;;20.52;9.57;;;;;;;;;;5031266;28;20481;-66
2021/12/18 12:56:23;;;;;;;23.27;8.75;;;;;;;;;;5031495;28;20490;-66
2021/12/18 12:59:24;;;;;;;21.83;9.25;;;;;;;;;;5031110;28;20053;-66
2021/12/18 13:01:52;;;;;;;21.10;8.10;;;;;;;;;;5033554;28;20053;-66
2021/12/18 13:04:20;;;;;;;21.75;8.85;;;;;;;;;;5034829;28;20053;-66
2021/12/18 13:06:48;;;;;;;20.27;8.75;;;;;;;;;;5084157;22;20072;-77
2021/12/18 13:09:15;;;;;;;17.30;7.63;;;;;;;;;;5056225;28;20458;-78
2021/12/18 13:11:42;;;;;;;18.33;7.75;;;;;;;;;;5057263;28;20061;-79
2021/12/18 13:14:14;;;;;;;16.77;7.45;;;;;;;;;;5056555;28;20045;-77
2021/12/18 13:16:40;;;;;;;17.52;8.00;;;;;;;;;;5051225;28;20132;-77
2021/12/18 13:19:07;;;;;;;17.40;7.40;;;;;;;;;;5034646;28;20191;-77
2021/12/18 13:21:36;;;;;;;17.83;8.23;;;;;;;;;;5035763;28;20041;-77
2021/12/18 13:24:06;;;;;;;20.83;8.35;;;;;;;;;;5035811;28;20053;-77
2021/12/18 13:26:35;;;;;;;21.65;9.93;;;;;;;;;;5035352;28;20049;-77
2021/12/18 13:29:07;;;;;;;44.67;22.40;;;;;;;;;;5034679;28;20053;-77
2021/12/18 13:31:38;;;;;;;33.65;14.50;;;;;;;;;;5035166;28;20137;-77
2021/12/18 13:34:08;;;;;;;18.02;7.43;;;;;;;;;;5038859;28;20053;-79
2021/12/18 13:36:40;;;;;;;22.95;9.27;;;;;;;;;;5035223;28;20045;-77
2021/12/18 13:39:10;;;;;;;18.23;8.85;;;;;;;;;;5036721;28;20048;-77
2021/12/18 13:41:37;;;;;;;19.95;8.70;;;;;;;;;;5040540;28;20100;-79
2021/12/18 13:44:04;;;;;;;19.95;8.40;;;;;;;;;;5041893;28;20045;-77
2021/12/18 13:46:33;;;;;;;16.73;6.90;;;;;;;;;;5041340;28;20466;-78
2021/12/18 13:49:00;;;;;;;18.95;8.35;;;;;;;;;;5039207;28;20416;-78
2021/12/18 13:51:28;;;;;;;21.05;8.57;;;;;;;;;;5037483;28;20053;-78
2021/12/18 13:53:57;;;;;;;22.20;9.35;;;;;;;;;;5037691;28;20050;-78
2021/12/18 13:56:27;;;;;;;19.63;7.70;;;;;;;;;;5038098;28;20054;-78
2021/12/18 13:58:54;;;;;;;20.75;7.78;;;;;;;;;;5038468;28;20049;-78
2021/12/18 14:01:23;;;;;;;20.00;7.88;;;;;;;;;;5040536;28;20045;-78
2021/12/18 14:03:51;;;;;;;18.65;7.95;;;;;;;;;;5040718;28;20050;-78
2021/12/18 14:06:22;;;;;;;21.55;8.52;;;;;;;;;;5038158;28;20049;-79
2021/12/18 14:08:53;;;;;;;22.23;9.07;;;;;;;;;;5037605;28;20300;-79
2021/12/18 14:11:27;;;;;;;18.42;8.13;;;;;;;;;;5038999;28;20050;-78
2021/12/18 14:14:04;;;;;;;19.90;9.00;;;;;;;;;;5038263;28;20050;-79
2021/12/18 14:16:32;;;;;;;18.33;7.65;;;;;;;;;;5040827;28;20041;-79
2021/12/18 14:19:04;;;;;;;21.83;8.50;;;;;;;;;;5046872;28;20049;-76
2021/12/18 14:21:38;;;;;;;23.50;9.55;;;;;;;;;;5048051;28;20076;-77
2021/12/18 14:24:06;;;;;;;18.80;7.65;;;;;;;;;;5039556;28;20041;-79
2021/12/18 14:26:34;;;;;;;17.80;7.95;;;;;;;;;;5038053;28;20057;-78
2021/12/18 14:29:08;;;;;;;21.83;8.68;;;;;;;;;;5037565;28;20053;-78
2021/12/18 14:31:38;;;;;;;24.30;9.82;;;;;;;;;;5037597;28;20057;-77
2021/12/18 14:34:08;;;;;;;20.92;7.40;;;;;;;;;;5037232;28;20049;-78
2021/12/18 14:37:06;;;;;;;18.15;7.15;;;;;;;;;;5036821;28;20100;-78
2021/12/18 14:39:52;;;;;;;19.35;8.48;;;;;;;;;;5021152;28;20107;-78
2021/12/18 14:42:30;;;;;;;17.95;8.35;;;;;;;;;;5035949;28;20064;-78
2021/12/18 14:45:00;;;;;;;22.42;8.63;;;;;;;;;;5036620;28;20056;-78
2021/12/18 14:47:33;;;;;;;19.55;8.15;;;;;;;;;;5036063;28;20104;-77
2021/12/18 14:50:11;;;;;;;20.70;9.00;;;;;;;;;;5036349;28;20050;-77
2021/12/18 14:53:09;;;;;;;18.20;7.82;;;;;;;;;;5036584;28;20041;-78
2021/12/18 14:55:38;;;;;;;20.80;9.00;;;;;;;;;;5013043;28;20068;-78
2021/12/18 14:58:08;;;;;;;22.27;8.85;;;;;;;;;;5035371;28;20049;-78
2021/12/18 15:00:43;;;;;;;18.70;8.52;;;;;;;;;;5035243;28;20045;-77
2021/12/18 15:03:18;;;;;;;19.60;9.05;;;;;;;;;;5024391;28;20124;-78
2021/12/18 15:05:54;;;;;;;21.58;8.85;;;;;;;;;;5033174;28;20053;-77
2021/12/18 15:08:32;;;;;;;19.75;8.77;;;;;;;;;;5033037;28;20052;-77
2021/12/18 15:11:01;;;;;;;21.38;8.85;;;;;;;;;;5032741;28;20251;-77
2021/12/18 15:13:29;;;;;;;19.17;9.05;;;;;;;;;;5033536;28;20554;-77